createdAt,value
2022-08-19T00:01:53.471Z,10.27
2022-08-19T00:04:24.221Z,10.02
2022-08-19T00:06:52.828Z,9.45
2022-08-19T00:09:24.267Z,9.32
2022-08-19T00:11:52.450Z,9.57
2022-08-19T00:14:21.506Z,9.52
2022-08-19T00:16:50.055Z,10.20
2022-08-19T00:19:19.025Z,9.55
2022-08-19T00:21:46.892Z,10.10
2022-08-19T00:24:16.368Z,10.20
2022-08-19T00:26:46.722Z,10.90
2022-08-19T00:29:16.409Z,9.70
2022-08-19T00:31:44.757Z,9.35
2022-08-19T00:34:13.266Z,9.75
2022-08-19T00:36:41.601Z,9.23
2022-08-19T00:39:10.077Z,9.23
2022-08-19T00:41:38.105Z,10.00
2022-08-19T00:44:10.170Z,10.10
2022-08-19T00:46:40.648Z,10.45
2022-08-19T00:49:15.482Z,10.95
2022-08-19T00:51:45.935Z,9.95
2022-08-19T00:54:14.583Z,9.75
2022-08-19T00:56:43.268Z,10.25
2022-08-19T00:59:13.091Z,10.40
2022-08-19T01:01:44.049Z,10.32
2022-08-19T01:04:12.005Z,10.38
2022-08-19T01:06:41.918Z,10.50
2022-08-19T01:09:11.004Z,10.13
2022-08-19T01:11:43.808Z,10.48
2022-08-19T01:14:14.272Z,10.70
2022-08-19T01:16:44.040Z,10.93
2022-08-19T01:19:17.650Z,10.52
2022-08-19T01:21:53.560Z,10.38
2022-08-19T01:24:22.844Z,11.13
2022-08-19T01:26:50.619Z,10.90
2022-08-19T01:29:18.791Z,10.48
2022-08-19T01:31:48.019Z,10.45
2022-08-19T01:34:15.838Z,10.75
2022-08-19T01:36:46.585Z,11.20
2022-08-19T01:39:18.399Z,10.50
2022-08-19T01:41:48.047Z,10.25
2022-08-19T01:44:19.143Z,10.82
2022-08-19T01:46:49.122Z,10.32
2022-08-19T01:49:18.004Z,10.88
2022-08-19T01:51:45.995Z,11.40
2022-08-19T01:54:23.066Z,11.18
2022-08-19T01:57:02.247Z,11.23
2022-08-19T01:59:30.506Z,11.40
2022-08-19T02:01:58.616Z,11.07
2022-08-19T02:04:27.190Z,11.90
2022-08-19T02:06:55.035Z,11.32
2022-08-19T02:09:22.940Z,11.90
2022-08-19T02:11:50.772Z,11.90
2022-08-19T02:14:19.999Z,11.90
2022-08-19T02:16:47.766Z,11.32
2022-08-19T02:19:15.537Z,11.77
2022-08-19T02:21:44.340Z,10.57
2022-08-19T02:24:13.152Z,11.45
2022-08-19T02:26:40.993Z,12.07
2022-08-19T02:29:09.758Z,12.27
2022-08-19T02:31:38.959Z,11.55
2022-08-19T02:34:06.860Z,12.05
2022-08-19T02:36:34.783Z,12.55
2022-08-19T02:39:01.812Z,11.88
2022-08-19T02:41:31.913Z,11.75
2022-08-19T02:44:30.826Z,13.00
2022-08-19T02:46:51.868Z,12.45
2022-08-19T02:49:21.451Z,12.18
2022-08-19T02:51:49.347Z,13.30
2022-08-19T02:54:17.472Z,12.95
2022-08-19T02:56:45.913Z,13.20
2022-08-19T02:59:13.786Z,13.20
2022-08-19T03:01:43.510Z,14.02
2022-08-19T03:04:16.446Z,12.50
2022-08-19T03:06:47.956Z,13.13
2022-08-19T03:09:16.818Z,13.65
2022-08-19T03:11:44.737Z,12.80
2022-08-19T03:14:13.760Z,12.63
2022-08-19T03:16:45.020Z,13.43
2022-08-19T03:19:15.072Z,13.13
2022-08-19T03:21:45.526Z,13.68
2022-08-19T03:24:14.484Z,13.27
2022-08-19T03:26:44.347Z,12.93
2022-08-19T03:29:13.253Z,13.15
2022-08-19T03:31:52.261Z,13.23
2022-08-19T03:34:27.198Z,13.38
2022-08-19T03:36:56.356Z,13.00
2022-08-19T03:39:25.518Z,12.88
2022-08-19T03:42:31.844Z,12.63
2022-08-19T03:44:46.656Z,13.23
2022-08-19T03:47:16.993Z,12.70
2022-08-19T03:49:46.671Z,13.18
2022-08-19T03:52:15.207Z,12.70
2022-08-19T03:54:43.235Z,12.77
2022-08-19T03:57:12.130Z,12.98
2022-08-19T03:59:40.342Z,12.95
2022-08-19T04:02:11.589Z,12.88
2022-08-19T04:04:40.739Z,13.52
2022-08-19T04:07:11.006Z,13.20
2022-08-19T04:09:39.305Z,13.98
2022-08-19T04:12:07.903Z,13.77
2022-08-19T04:14:36.697Z,14.93
2022-08-19T04:17:06.720Z,14.02
2022-08-19T04:19:35.501Z,14.30
2022-08-19T04:22:04.024Z,14.65
2022-08-19T04:24:33.917Z,14.25
2022-08-19T04:27:02.988Z,14.55
2022-08-19T04:29:31.224Z,14.65
2022-08-19T04:32:09.264Z,15.23
2022-08-19T04:35:01.153Z,14.57
2022-08-19T04:37:29.451Z,14.35
2022-08-19T04:40:32.825Z,14.52
2022-08-19T04:43:01.987Z,15.65
2022-08-19T04:45:30.664Z,14.98
2022-08-19T04:48:19.634Z,14.75
2022-08-19T04:50:58.532Z,14.50
2022-08-19T04:53:29.721Z,14.48
2022-08-19T04:56:09.817Z,13.18
2022-08-19T04:58:39.631Z,13.98
2022-08-19T05:01:07.687Z,14.98
2022-08-19T05:03:35.665Z,13.70
2022-08-19T05:06:08.387Z,14.45
2022-08-19T05:08:37.803Z,14.73
2022-08-19T05:11:14.985Z,16.75
2022-08-19T05:13:43.370Z,16.48
2022-08-19T05:16:13.074Z,16.15
2022-08-19T05:18:59.238Z,23.05
2022-08-19T05:21:45.148Z,32.40
2022-08-19T05:24:13.751Z,31.30
2022-08-19T05:26:46.501Z,32.78
2022-08-19T05:29:15.795Z,32.17
2022-08-19T05:31:44.107Z,33.00
2022-08-19T05:34:20.075Z,33.75
2022-08-19T05:36:48.632Z,35.35
2022-08-19T05:39:22.341Z,36.13
2022-08-19T05:41:54.368Z,34.03
2022-08-19T05:44:23.032Z,36.22
2022-08-19T05:46:53.814Z,34.88
2022-08-19T05:49:23.933Z,34.97
2022-08-19T05:51:52.193Z,35.90
2022-08-19T05:54:21.180Z,35.55
2022-08-19T05:56:49.547Z,35.25
2022-08-19T05:59:20.455Z,37.38
2022-08-19T06:01:51.503Z,35.28
2022-08-19T06:04:21.569Z,33.20
2022-08-19T06:06:53.774Z,35.90
2022-08-19T06:09:23.171Z,35.15
2022-08-19T06:11:56.045Z,38.58
2022-08-19T06:14:28.162Z,36.97
2022-08-19T06:16:56.410Z,38.33
2022-08-19T06:19:27.226Z,36.75
2022-08-19T06:21:55.722Z,37.80
2022-08-19T06:24:26.316Z,37.38
2022-08-19T06:26:59.199Z,34.50
2022-08-19T06:29:33.210Z,36.25
2022-08-19T06:32:05.057Z,37.47
2022-08-19T06:34:36.333Z,34.78
2022-08-19T06:37:06.814Z,36.63
2022-08-19T06:39:36.631Z,34.35
2022-08-19T06:42:08.005Z,31.58
2022-08-19T06:44:43.785Z,31.23
2022-08-19T06:47:23.802Z,31.30
2022-08-19T06:50:01.341Z,32.78
2022-08-19T06:52:31.569Z,34.58
2022-08-19T06:55:06.375Z,31.67
2022-08-19T06:57:35.447Z,33.13
2022-08-19T07:00:13.180Z,30.23
2022-08-19T07:02:42.621Z,33.63
2022-08-19T07:05:11.773Z,31.85
2022-08-19T07:07:44.092Z,30.27
2022-08-19T07:10:15.647Z,28.33
2022-08-19T07:12:45.358Z,29.55
2022-08-19T07:15:16.975Z,28.60
2022-08-19T07:17:52.556Z,30.02
2022-08-19T07:20:21.275Z,28.40
2022-08-19T07:22:49.307Z,30.17
2022-08-19T07:25:19.466Z,30.80
2022-08-19T07:27:54.214Z,28.38
2022-08-19T07:30:26.260Z,30.75
2022-08-19T07:32:54.675Z,28.42
2022-08-19T07:35:22.865Z,28.75
2022-08-19T07:37:50.714Z,30.15
2022-08-19T07:40:18.691Z,30.50
2022-08-19T07:42:46.849Z,28.85
2022-08-19T07:45:14.780Z,29.33
2022-08-19T07:47:50.390Z,29.70
2022-08-19T07:50:21.936Z,30.42
2022-08-19T07:52:50.855Z,31.02
2022-08-19T07:55:41.550Z,31.42
2022-08-19T07:58:12.221Z,32.35
2022-08-19T08:00:40.301Z,30.63
2022-08-19T08:03:10.561Z,31.77
2022-08-19T08:05:55.815Z,32.78
2022-08-19T08:08:37.695Z,32.72
2022-08-19T08:11:13.414Z,31.85
2022-08-19T08:13:43.701Z,31.77
2022-08-19T08:16:13.929Z,35.08
2022-08-19T08:18:50.729Z,36.08
2022-08-19T08:21:21.152Z,36.35
2022-08-19T08:23:49.129Z,36.38
2022-08-19T08:26:19.291Z,34.80
2022-08-19T08:28:49.634Z,35.72
2022-08-19T08:31:19.478Z,35.35
2022-08-19T08:33:49.512Z,38.33
2022-08-19T08:36:18.026Z,35.03
2022-08-19T08:38:47.568Z,36.45
2022-08-19T08:41:24.532Z,34.95
2022-08-19T08:43:54.545Z,37.13
2022-08-19T08:46:31.472Z,33.08
2022-08-19T08:49:08.482Z,33.08
2022-08-19T08:51:47.567Z,30.52
2022-08-19T08:54:20.020Z,29.90
2022-08-19T08:56:50.343Z,34.42
2022-08-19T08:59:25.465Z,34.17
2022-08-19T09:01:53.461Z,33.35
2022-08-19T09:04:23.489Z,32.03
2022-08-19T09:07:17.918Z,31.00
2022-08-19T09:09:56.139Z,34.65
2022-08-19T09:12:33.182Z,32.70
2022-08-19T09:15:05.761Z,33.05
2022-08-19T09:17:36.252Z,37.00
2022-08-19T09:20:09.568Z,34.53
2022-08-19T09:22:38.325Z,32.00
2022-08-19T09:25:08.428Z,30.90
2022-08-19T09:27:43.047Z,32.83
2022-08-19T09:30:16.236Z,34.08
2022-08-19T09:32:45.611Z,33.38
2022-08-19T09:35:16.850Z,32.30
2022-08-19T09:37:45.000Z,35.55
2022-08-19T09:40:15.536Z,31.27
2022-08-19T09:42:49.686Z,30.85
2022-08-19T09:45:22.224Z,29.25
2022-08-19T09:47:51.998Z,30.40
2022-08-19T09:50:24.735Z,30.20
2022-08-19T09:52:57.061Z,28.10
2022-08-19T09:55:31.466Z,26.73
2022-08-19T09:58:03.213Z,26.08
2022-08-19T10:00:32.720Z,26.55
2022-08-19T10:03:01.146Z,28.02
2022-08-19T10:05:48.646Z,27.40
2022-08-19T10:08:18.669Z,24.88
2022-08-19T10:10:49.920Z,24.95
2022-08-19T10:13:21.432Z,22.25
2022-08-19T10:15:51.649Z,25.13
2022-08-19T10:18:22.201Z,21.45
2022-08-19T10:20:53.418Z,23.27
2022-08-19T10:23:21.944Z,21.13
2022-08-19T10:25:50.640Z,21.98
2022-08-19T10:28:19.048Z,18.52
2022-08-19T10:30:47.893Z,19.25
2022-08-19T10:33:27.044Z,20.00
2022-08-19T10:36:09.043Z,18.48
2022-08-19T10:38:37.403Z,16.58
2022-08-19T10:41:11.394Z,15.88
2022-08-19T10:43:40.633Z,14.95
2022-08-19T10:46:14.187Z,16.08
2022-08-19T10:48:45.727Z,16.58
2022-08-19T10:51:32.283Z,12.88
2022-08-19T10:54:01.128Z,12.85
2022-08-19T10:56:46.800Z,13.50
2022-08-19T10:59:15.118Z,14.00
2022-08-19T11:01:44.770Z,11.10
2022-08-19T11:04:14.483Z,12.80
2022-08-19T11:06:44.512Z,15.88
2022-08-19T11:09:13.301Z,15.40
2022-08-19T11:11:41.704Z,13.65
2022-08-19T11:14:10.440Z,13.65
2022-08-19T11:16:39.988Z,13.70
2022-08-19T11:19:09.725Z,14.63
2022-08-19T11:21:42.376Z,13.52
2022-08-19T11:24:14.372Z,14.35
2022-08-19T11:26:48.928Z,13.52
2022-08-19T11:29:18.899Z,12.40
2022-08-19T11:31:49.160Z,14.65
2022-08-19T11:34:20.609Z,14.43
2022-08-19T11:36:49.635Z,14.13
2022-08-19T11:39:21.574Z,12.63
2022-08-19T11:41:50.186Z,11.65
2022-08-19T11:44:18.296Z,10.13
2022-08-19T11:46:49.911Z,13.13
2022-08-19T11:49:20.260Z,13.10
2022-08-19T11:51:49.245Z,12.30
2022-08-19T11:54:19.078Z,12.68
2022-08-19T11:56:50.005Z,9.50
2022-08-19T11:59:19.763Z,10.27
2022-08-19T12:01:47.618Z,10.93
2022-08-19T12:04:15.862Z,10.45
2022-08-19T12:06:46.486Z,11.00
2022-08-19T12:09:15.538Z,10.90
2022-08-19T12:11:45.345Z,10.50
2022-08-19T12:14:16.862Z,10.15
2022-08-19T12:16:52.433Z,9.65
2022-08-19T12:19:25.483Z,8.60
2022-08-19T12:22:03.725Z,9.02
2022-08-19T12:24:33.299Z,8.85
2022-08-19T12:27:05.878Z,7.30
2022-08-19T12:29:48.056Z,7.30
2022-08-19T12:32:17.867Z,7.60
2022-08-19T12:34:48.279Z,7.07
2022-08-19T12:37:16.197Z,8.50
2022-08-19T12:39:44.491Z,6.90
2022-08-19T12:42:15.572Z,7.70
2022-08-19T12:44:47.350Z,7.47
2022-08-19T12:47:16.041Z,7.65
2022-08-19T12:49:54.648Z,8.35
2022-08-19T12:52:26.217Z,7.90
2022-08-19T12:54:56.027Z,8.18
2022-08-19T12:57:34.103Z,8.80
2022-08-19T13:00:13.698Z,7.78
2022-08-19T13:02:47.117Z,6.60
2022-08-19T13:05:21.050Z,6.85
2022-08-19T13:07:57.117Z,7.38
2022-08-19T13:10:28.859Z,6.25
2022-08-19T13:13:00.533Z,6.32
2022-08-19T13:15:29.395Z,7.30
2022-08-19T13:18:00.521Z,7.47
2022-08-19T13:20:28.929Z,7.38
2022-08-19T13:22:58.315Z,8.00
2022-08-19T13:25:27.564Z,6.80
2022-08-19T13:27:56.354Z,7.45
2022-08-19T13:30:43.508Z,7.80
2022-08-19T13:33:16.023Z,6.50
2022-08-19T13:35:48.202Z,6.53
2022-08-19T13:38:18.342Z,6.60
2022-08-19T13:40:47.347Z,6.80
2022-08-19T13:43:23.135Z,6.50
2022-08-19T13:45:54.752Z,6.18
2022-08-19T13:48:23.516Z,6.90
2022-08-19T13:50:51.445Z,5.85
2022-08-19T13:53:20.290Z,6.40
2022-08-19T13:55:48.240Z,5.88
2022-08-19T13:58:16.173Z,5.90
2022-08-19T14:00:47.173Z,6.53
2022-08-19T14:03:17.084Z,5.55
2022-08-19T14:05:44.955Z,4.78
2022-08-19T14:08:15.226Z,4.88
2022-08-19T14:10:45.214Z,4.88
2022-08-19T14:13:16.756Z,5.78
2022-08-19T14:15:44.752Z,5.10
2022-08-19T14:18:12.964Z,5.30
2022-08-19T14:20:42.726Z,5.95
2022-08-19T14:23:11.246Z,5.10
2022-08-19T14:25:39.137Z,4.97
2022-08-19T14:28:08.591Z,5.10
2022-08-19T14:30:38.687Z,4.20
2022-08-19T14:33:09.237Z,4.22
2022-08-19T14:35:37.611Z,4.65
2022-08-19T14:38:09.037Z,4.10
2022-08-19T14:40:36.840Z,3.70
2022-08-19T14:43:06.605Z,4.50
2022-08-19T14:45:37.316Z,4.15
2022-08-19T14:48:05.517Z,4.57
2022-08-19T14:50:34.115Z,4.63
2022-08-19T14:53:09.090Z,4.78
2022-08-19T14:55:44.625Z,4.15
2022-08-19T14:58:28.804Z,4.55
2022-08-19T15:00:59.751Z,4.03
2022-08-19T15:03:27.902Z,3.90
2022-08-19T15:05:57.478Z,3.83
2022-08-19T15:08:25.777Z,3.45
2022-08-19T15:10:55.448Z,3.70
2022-08-19T15:13:23.316Z,3.50
2022-08-19T15:15:52.659Z,3.40
2022-08-19T15:18:22.787Z,3.28
2022-08-19T15:20:51.859Z,3.90
2022-08-19T15:23:21.736Z,3.20
2022-08-19T15:25:52.958Z,2.78
2022-08-19T15:28:22.366Z,3.15
2022-08-19T15:30:50.964Z,2.90
2022-08-19T15:33:20.664Z,3.10
2022-08-19T15:35:51.603Z,3.10
2022-08-19T15:38:21.975Z,3.03
2022-08-19T15:40:51.260Z,2.70
2022-08-19T15:43:21.659Z,2.67
2022-08-19T15:45:51.198Z,2.90
2022-08-19T15:48:19.098Z,3.00
2022-08-19T15:50:47.031Z,2.67
2022-08-19T15:53:14.996Z,2.83
2022-08-19T15:55:45.186Z,2.88
2022-08-19T15:58:32.737Z,2.60
2022-08-19T16:01:21.555Z,2.67
2022-08-19T16:04:14.034Z,3.20
2022-08-19T16:06:45.961Z,3.13
2022-08-19T16:09:14.254Z,3.08
2022-08-19T16:11:46.515Z,3.10
2022-08-19T16:14:15.174Z,2.80
2022-08-19T16:16:46.903Z,3.00
2022-08-19T16:19:16.526Z,2.75
2022-08-19T16:21:46.031Z,3.10
2022-08-19T16:24:17.456Z,2.78
2022-08-19T16:26:46.418Z,2.70
2022-08-19T16:29:15.033Z,3.30
2022-08-19T16:31:57.746Z,2.88
2022-08-19T16:34:25.815Z,3.10
2022-08-19T16:36:54.111Z,3.20
2022-08-19T16:39:22.147Z,3.50
2022-08-19T16:41:50.951Z,3.58
2022-08-19T16:44:20.883Z,3.33
2022-08-19T16:46:55.739Z,2.92
2022-08-19T16:49:52.288Z,3.33
2022-08-19T16:52:16.583Z,2.58
2022-08-19T16:54:44.949Z,3.30
2022-08-19T16:57:13.457Z,2.70
2022-08-19T16:59:48.332Z,3.00
2022-08-19T17:02:17.825Z,2.47
2022-08-19T17:04:57.703Z,2.10
2022-08-19T17:07:26.659Z,2.42
2022-08-19T17:09:55.214Z,2.40
2022-08-19T17:12:23.292Z,2.92
2022-08-19T17:14:58.808Z,2.92
2022-08-19T17:17:29.344Z,3.20
2022-08-19T17:19:58.973Z,3.05
2022-08-19T17:22:27.075Z,2.60
2022-08-19T17:24:57.903Z,2.72
2022-08-19T17:27:27.083Z,3.50
2022-08-19T17:30:00.569Z,2.97
2022-08-19T17:32:28.535Z,2.65
2022-08-19T17:34:56.288Z,3.00
2022-08-19T17:37:25.521Z,3.00
2022-08-19T17:39:53.409Z,3.00
2022-08-19T17:42:21.403Z,2.72
2022-08-19T17:44:50.687Z,2.78
2022-08-19T17:47:19.357Z,2.70
2022-08-19T17:49:47.280Z,3.10
2022-08-19T17:52:15.082Z,3.38
2022-08-19T17:54:44.437Z,3.00
2022-08-19T17:57:14.050Z,3.25
2022-08-19T17:59:44.344Z,2.60
2022-08-19T18:02:12.589Z,2.83
2022-08-19T18:04:48.264Z,2.58
2022-08-19T18:07:21.665Z,2.40
2022-08-19T18:09:52.729Z,2.90
2022-08-19T18:12:24.490Z,3.00
2022-08-19T18:14:52.788Z,2.70
2022-08-19T18:17:23.346Z,2.85
2022-08-19T18:19:51.323Z,2.92
2022-08-19T18:22:26.525Z,2.92
2022-08-19T18:24:57.021Z,3.10
2022-08-19T18:27:25.336Z,2.67
2022-08-19T18:29:54.491Z,2.83
2022-08-19T18:32:24.180Z,2.38
2022-08-19T18:34:52.476Z,2.40
2022-08-19T18:37:20.403Z,2.35
2022-08-19T18:40:05.618Z,2.50
2022-08-19T18:42:52.105Z,2.00
2022-08-19T18:45:37.236Z,2.03
2022-08-19T18:48:27.288Z,2.15
2022-08-19T18:50:56.875Z,2.05
2022-08-19T18:53:25.156Z,1.90
2022-08-19T18:55:53.892Z,2.08
2022-08-19T18:58:26.337Z,1.90
2022-08-19T19:00:57.376Z,1.77
2022-08-19T19:03:26.022Z,2.20
2022-08-19T19:05:54.708Z,2.13
2022-08-19T19:08:27.259Z,1.70
2022-08-19T19:10:56.910Z,2.13
2022-08-19T19:13:28.524Z,2.15
2022-08-19T19:15:56.894Z,1.70
2022-08-19T19:18:25.101Z,2.38
2022-08-19T19:20:53.017Z,2.17
2022-08-19T19:23:21.605Z,2.65
2022-08-19T19:25:52.876Z,2.53
2022-08-19T19:28:25.306Z,1.95
2022-08-19T19:30:57.557Z,2.35
2022-08-19T19:33:25.675Z,2.30
2022-08-19T19:35:53.515Z,2.53
2022-08-19T19:38:21.716Z,2.67
2022-08-19T19:40:49.612Z,2.20
2022-08-19T19:43:18.402Z,2.40
2022-08-19T19:45:48.265Z,2.42
2022-08-19T19:48:17.706Z,2.60
2022-08-19T19:50:46.534Z,2.42
2022-08-19T19:53:24.115Z,2.05
2022-08-19T19:55:58.760Z,2.30
2022-08-19T19:58:29.154Z,2.33
2022-08-19T20:00:58.562Z,2.20
2022-08-19T20:03:30.064Z,2.53
2022-08-19T20:05:59.168Z,2.50
2022-08-19T20:08:45.104Z,2.38
2022-08-19T20:11:17.513Z,2.22
2022-08-19T20:13:45.357Z,1.98
2022-08-19T20:16:13.378Z,2.25
2022-08-19T20:18:43.633Z,2.00
2022-08-19T20:21:12.330Z,2.00
2022-08-19T20:23:40.124Z,2.25
2022-08-19T20:26:08.522Z,2.22
2022-08-19T20:28:58.158Z,2.60
2022-08-19T20:31:29.843Z,2.13
2022-08-19T20:34:05.625Z,2.17
2022-08-19T20:36:34.372Z,2.10
2022-08-19T20:39:02.247Z,2.33
2022-08-19T20:41:30.191Z,2.10
2022-08-19T20:43:58.479Z,2.00
2022-08-19T20:46:29.047Z,1.90
2022-08-19T20:48:58.580Z,1.92
2022-08-19T20:51:30.820Z,2.20
2022-08-19T20:53:59.356Z,2.22
2022-08-19T20:56:27.470Z,2.13
2022-08-19T20:58:59.831Z,2.00
2022-08-19T21:01:28.072Z,2.58
2022-08-19T21:03:55.913Z,1.90
2022-08-19T21:06:23.742Z,2.10
2022-08-19T21:08:54.411Z,2.20
2022-08-19T21:11:22.611Z,2.25
2022-08-19T21:13:50.507Z,2.08
2022-08-19T21:16:22.043Z,2.03
2022-08-19T21:18:49.883Z,1.50
2022-08-19T21:21:17.784Z,1.95
2022-08-19T21:23:45.596Z,1.80
2022-08-19T21:26:14.773Z,1.60
2022-08-19T21:28:42.588Z,1.60
2022-08-19T21:31:11.464Z,1.85
2022-08-19T21:33:39.806Z,1.85
2022-08-19T21:36:09.477Z,1.67
2022-08-19T21:38:37.834Z,1.80
2022-08-19T21:41:06.880Z,2.05
2022-08-19T21:43:36.899Z,1.90
2022-08-19T21:46:05.262Z,2.20
2022-08-19T21:48:33.115Z,1.80
2022-08-19T21:51:00.933Z,2.00
2022-08-19T21:53:31.503Z,2.20
2022-08-19T21:56:01.072Z,2.20
2022-08-19T21:58:30.063Z,1.80
2022-08-19T22:01:01.443Z,1.90
2022-08-19T22:03:30.915Z,2.00
2022-08-19T22:06:02.003Z,2.30
2022-08-19T22:08:31.402Z,1.95
2022-08-19T22:11:03.044Z,1.70
2022-08-19T22:13:39.823Z,2.50
2022-08-19T22:16:10.553Z,2.20
2022-08-19T22:18:38.484Z,2.15
2022-08-19T22:21:11.284Z,2.10
2022-08-19T22:23:40.095Z,2.08
2022-08-19T22:26:08.093Z,1.98
2022-08-19T22:28:35.904Z,2.30
2022-08-19T22:31:04.198Z,2.50
2022-08-19T22:33:33.548Z,2.05
2022-08-19T22:36:01.789Z,1.80
2022-08-19T22:38:29.617Z,2.13
2022-08-19T22:40:57.504Z,2.33
2022-08-19T22:43:28.485Z,2.15
2022-08-19T22:45:57.292Z,2.28
2022-08-19T22:48:29.635Z,2.50
2022-08-19T22:51:16.697Z,2.30
2022-08-19T22:53:47.962Z,2.10
2022-08-19T22:56:18.606Z,2.13
2022-08-19T22:58:50.208Z,2.55
2022-08-19T23:01:27.384Z,2.05
2022-08-19T23:03:58.909Z,2.10
2022-08-19T23:06:33.902Z,2.08
2022-08-19T23:09:04.711Z,2.25
2022-08-19T23:11:35.721Z,2.00
2022-08-19T23:14:08.745Z,2.00
2022-08-19T23:16:36.831Z,2.50
2022-08-19T23:19:04.987Z,2.47
2022-08-19T23:21:36.160Z,2.38
2022-08-19T23:24:04.643Z,2.15
2022-08-19T23:26:35.769Z,1.92
2022-08-19T23:29:22.830Z,2.28
2022-08-19T23:31:50.735Z,2.60
2022-08-19T23:34:18.599Z,2.40
2022-08-19T23:36:48.297Z,2.28
2022-08-19T23:39:16.238Z,2.10
2022-08-19T23:41:44.044Z,2.00
2022-08-19T23:44:14.713Z,2.00
2022-08-19T23:46:51.899Z,2.38
2022-08-19T23:49:22.643Z,2.67
2022-08-19T23:51:51.992Z,2.60
2022-08-19T23:54:19.844Z,2.53
2022-08-19T23:56:47.635Z,2.40
2022-08-19T23:59:15.598Z,2.50
